createdAt,value
2023-02-19T17:15:15.395Z,76.81
2023-02-19T17:20:17.386Z,76.75
2023-02-19T17:25:20.127Z,76.75
2023-02-19T17:30:32.894Z,76.83
2023-02-19T17:35:35.166Z,77.11
2023-02-19T17:40:38.249Z,77.10
2023-02-19T17:45:40.434Z,77.66
2023-02-19T17:50:43.017Z,77.80
2023-02-19T17:55:45.265Z,76.90
2023-02-19T18:00:47.435Z,76.84
2023-02-19T18:05:49.567Z,76.10
2023-02-19T18:10:52.725Z,74.93
2023-02-19T18:15:54.821Z,73.25
2023-02-19T18:20:56.910Z,73.91
2023-02-19T18:25:59.089Z,73.47
2023-02-19T18:31:01.850Z,73.57
2023-02-19T18:36:04.318Z,73.51
2023-02-19T18:41:06.428Z,73.68
2023-02-19T18:46:09.838Z,73.93
2023-02-19T18:51:13.652Z,73.90
2023-02-19T18:56:16.456Z,74.13
2023-02-19T19:01:18.599Z,74.54
2023-02-19T19:06:20.711Z,74.46
2023-02-19T19:11:22.818Z,74.25
2023-02-19T19:16:29.331Z,74.45
2023-02-19T19:21:31.730Z,74.19
2023-02-19T19:26:35.114Z,74.33
2023-02-19T19:31:37.713Z,74.25
2023-02-19T19:36:40.062Z,75.24
2023-02-19T19:41:42.289Z,75.35
2023-02-19T19:46:45.620Z,76.00
2023-02-19T19:51:48.376Z,75.43
2023-02-19T19:56:50.989Z,75.51
2023-02-19T20:01:57.239Z,75.46
2023-02-19T20:07:00.256Z,75.22
2023-02-19T20:12:03.050Z,74.70
2023-02-19T20:17:05.413Z,73.99
2023-02-19T20:22:07.681Z,73.64
2023-02-19T20:27:09.885Z,73.28
2023-02-19T20:32:14.231Z,72.58
2023-02-19T20:37:16.324Z,69.39
2023-02-19T20:42:19.009Z,68.54
2023-02-19T20:47:21.085Z,67.79
2023-02-19T20:52:24.893Z,66.79
2023-02-19T20:57:27.010Z,65.11
2023-02-19T21:02:29.410Z,65.88
2023-02-19T21:07:31.653Z,64.81
2023-02-19T21:12:33.909Z,65.30
2023-02-19T21:17:35.972Z,65.13
2023-02-19T21:22:38.155Z,64.57
2023-02-19T21:27:40.315Z,64.29
2023-02-19T21:32:42.414Z,63.93
2023-02-19T21:37:44.590Z,63.67
2023-02-19T21:42:46.649Z,63.00
2023-02-19T21:47:52.045Z,61.86
